Terminal Aerodrome Forecast
Issued by NWS Grand Rapids, MI

Home | Current Version | Previous Version | Text Only | Print | Product List | Glossary On
Versions: 1 2 3 4 5 6 7 8 9 10 11 12 13 14 15 16 17 18 19 20
000
FTUS43 KGRR 232340
TAFGRR
TAF
KGRR 232340Z 2400/2424 VRB05KT P6SM BKN150
     FM241100 16007KT P6SM VCTS BKN060CB
     FM241600 19010KT P6SM -RA OVC040
     FM242000 22012G18KT P6SM BKN250=

USA.gov is the U.S. government's official web portal to all federal, state and local government web resources and services.